createdAt,value
2024-03-11T00:00:02.040Z,94055.72
2024-03-11T00:02:28.969Z,94064.94
2024-03-11T00:04:56.006Z,94065.66
2024-03-11T00:07:22.821Z,94070.88
2024-03-11T00:09:49.974Z,94067.19
2024-03-11T00:12:18.829Z,94059.53
2024-03-11T00:14:48.783Z,94066.06
2024-03-11T00:17:16.210Z,94059.53
2024-03-11T00:19:43.003Z,94062.41
2024-03-11T00:22:09.797Z,94063.94
2024-03-11T00:24:36.691Z,94041.38
2024-03-11T00:27:08.970Z,94044.16
2024-03-11T00:29:36.371Z,94030.53
2024-03-11T00:32:09.245Z,94028.31
2024-03-11T00:34:36.080Z,94031.28
2024-03-11T00:37:03.694Z,94028.63
2024-03-11T00:39:31.803Z,94031.84
2024-03-11T00:41:58.555Z,94027.13
2024-03-11T00:44:25.347Z,94019.16
2024-03-11T00:46:52.155Z,94031.06
2024-03-11T00:49:20.879Z,94034.69
2024-03-11T00:51:47.756Z,94026.47
2024-03-11T00:54:14.830Z,94043.38
2024-03-11T00:56:41.601Z,94048.28
2024-03-11T00:59:08.352Z,94042.78
2024-03-11T01:01:35.109Z,94030.72
2024-03-11T01:04:01.786Z,94022.34
2024-03-11T01:06:28.676Z,94021.03
2024-03-11T01:08:56.142Z,94018.88
2024-03-11T01:11:24.455Z,94015.09
2024-03-11T01:13:51.260Z,94018.59
2024-03-11T01:16:18.059Z,94005.59
2024-03-11T01:18:48.905Z,93991.78
2024-03-11T01:21:15.531Z,93994.94
2024-03-11T01:23:42.169Z,94015.38
2024-03-11T01:26:08.935Z,94031.72
2024-03-11T01:28:36.951Z,94049.00
2024-03-11T01:31:05.609Z,94061.59
2024-03-11T01:33:32.312Z,94052.56
2024-03-11T01:36:00.539Z,94041.88
2024-03-11T01:38:29.992Z,94031.00
2024-03-11T01:40:57.765Z,94055.09
2024-03-11T01:43:26.319Z,94057.88
2024-03-11T01:45:54.694Z,94053.25
2024-03-11T01:48:21.632Z,94060.56
2024-03-11T01:50:49.395Z,94048.34
2024-03-11T01:53:16.761Z,94044.16
2024-03-11T01:55:44.804Z,94044.22
2024-03-11T01:58:12.236Z,94037.66
2024-03-11T02:00:38.952Z,94027.66
2024-03-11T02:03:07.698Z,94022.75
2024-03-11T02:05:41.780Z,94020.22
2024-03-11T02:08:09.021Z,94008.97
2024-03-11T02:10:35.868Z,94014.78
2024-03-11T02:13:02.912Z,94029.13
2024-03-11T02:15:30.313Z,94029.09
2024-03-11T02:17:57.575Z,94007.00
2024-03-11T02:20:24.538Z,94007.22
2024-03-11T02:22:55.998Z,94004.47
2024-03-11T02:25:30.565Z,93993.31
2024-03-11T02:27:59.500Z,93986.69
2024-03-11T02:30:26.549Z,94000.81
2024-03-11T02:32:53.586Z,93986.22
2024-03-11T02:35:21.430Z,93976.13
2024-03-11T02:37:49.915Z,93980.19
2024-03-11T02:40:19.979Z,93960.41
2024-03-11T02:42:47.388Z,93958.03
2024-03-11T02:45:16.482Z,93960.50
2024-03-11T02:47:44.448Z,93966.38
2024-03-11T02:50:11.949Z,93968.34
2024-03-11T02:52:38.809Z,93971.69
2024-03-11T02:55:07.322Z,93959.34
2024-03-11T02:57:34.337Z,93978.94
2024-03-11T03:00:01.447Z,93981.56
2024-03-11T03:02:28.798Z,93987.44
2024-03-11T03:04:57.396Z,93992.88
2024-03-11T03:07:27.162Z,93976.38
2024-03-11T03:09:54.687Z,93991.72
2024-03-11T03:12:22.052Z,93993.47
2024-03-11T03:14:49.051Z,93979.94
2024-03-11T03:17:16.057Z,93970.72
2024-03-11T03:19:42.821Z,93976.19
2024-03-11T03:22:09.551Z,93989.41
2024-03-11T03:24:36.368Z,94003.03
2024-03-11T03:27:03.128Z,94003.97
2024-03-11T03:29:31.768Z,94007.97
2024-03-11T03:31:59.171Z,94006.34
2024-03-11T03:34:26.008Z,93985.25
2024-03-11T03:36:52.804Z,93981.56
2024-03-11T03:39:19.606Z,93969.25
2024-03-11T03:41:46.558Z,93986.28
2024-03-11T03:44:13.728Z,93970.28
2024-03-11T03:46:42.321Z,93971.03
2024-03-11T03:49:09.091Z,93955.31
2024-03-11T03:51:35.854Z,93952.00
2024-03-11T03:54:02.666Z,93973.59
2024-03-11T03:56:30.667Z,93979.69
2024-03-11T03:58:57.783Z,93968.00
2024-03-11T04:01:24.896Z,93978.44
2024-03-11T04:03:51.868Z,93978.28
2024-03-11T04:06:18.635Z,93981.03
2024-03-11T04:08:45.802Z,93977.69
2024-03-11T04:11:12.845Z,93974.31
2024-03-11T04:13:41.164Z,93959.41
2024-03-11T04:16:08.535Z,93959.09
2024-03-11T04:18:35.534Z,93967.09
2024-03-11T04:21:02.991Z,93971.59
2024-03-11T04:23:30.378Z,93975.28
2024-03-11T04:25:58.168Z,93977.72
2024-03-11T04:28:28.836Z,93979.97
2024-03-11T04:30:56.711Z,93970.16
2024-03-11T04:33:23.700Z,93957.00
2024-03-11T04:35:50.783Z,93947.31
2024-03-11T04:38:19.378Z,93945.59
2024-03-11T04:40:46.307Z,93950.56
2024-03-11T04:43:13.001Z,93955.78
2024-03-11T04:45:40.172Z,93956.72
2024-03-11T04:48:08.627Z,93948.00
2024-03-11T04:50:39.528Z,93952.22
2024-03-11T04:53:08.584Z,93962.03
2024-03-11T04:55:36.107Z,93961.44
2024-03-11T04:58:02.850Z,93954.06
2024-03-11T05:00:31.580Z,93959.13
2024-03-11T05:03:00.330Z,93956.25
2024-03-11T05:05:28.675Z,93961.56
2024-03-11T05:07:56.590Z,93967.34
2024-03-11T05:10:23.430Z,93967.03
2024-03-11T05:12:50.985Z,93970.50
2024-03-11T05:15:21.063Z,93978.78
2024-03-11T05:17:48.190Z,93983.22
2024-03-11T05:20:19.542Z,93976.31
2024-03-11T05:22:47.880Z,93960.34
2024-03-11T05:25:19.389Z,93973.94
2024-03-11T05:27:48.434Z,93970.19
2024-03-11T05:30:16.731Z,93959.25
2024-03-11T05:32:43.737Z,93963.59
2024-03-11T05:35:10.827Z,93974.53
2024-03-11T05:37:37.762Z,93983.53
2024-03-11T05:40:07.941Z,93973.09
2024-03-11T05:42:35.600Z,93981.84
2024-03-11T05:45:03.302Z,93981.69
2024-03-11T05:47:30.057Z,93974.94
2024-03-11T05:49:56.706Z,93987.19
2024-03-11T05:52:26.659Z,93980.00
2024-03-11T05:54:54.916Z,93975.22
2024-03-11T05:57:31.168Z,93982.03
2024-03-11T05:59:58.213Z,93993.78
2024-03-11T06:02:25.068Z,93984.72
2024-03-11T06:04:51.853Z,93992.91
2024-03-11T06:07:25.329Z,93991.25
2024-03-11T06:09:53.301Z,93985.66
2024-03-11T06:12:21.648Z,93989.94
2024-03-11T06:14:49.721Z,93987.63
2024-03-11T06:17:17.808Z,93994.81
2024-03-11T06:19:46.043Z,93983.50
2024-03-11T06:22:13.604Z,93991.25
2024-03-11T06:24:40.449Z,93992.06
2024-03-11T06:27:07.434Z,93994.31
2024-03-11T06:29:35.260Z,93995.38
2024-03-11T06:32:07.068Z,93993.50
2024-03-11T06:34:36.087Z,93996.56
2024-03-11T06:37:03.087Z,93997.34
2024-03-11T06:39:31.001Z,93995.19
2024-03-11T06:41:58.514Z,94000.16
2024-03-11T06:44:33.699Z,93999.00
2024-03-11T06:47:09.672Z,94009.28
2024-03-11T06:49:37.655Z,93995.88
2024-03-11T06:52:04.678Z,93999.91
2024-03-11T06:54:31.647Z,93983.72
2024-03-11T06:56:58.303Z,94010.53
2024-03-11T06:59:27.429Z,94001.28
2024-03-11T07:01:54.342Z,93999.47
2024-03-11T07:04:23.426Z,94002.75
2024-03-11T07:06:50.066Z,93998.38
2024-03-11T07:09:16.919Z,94002.53
2024-03-11T07:11:44.412Z,94014.25
2024-03-11T07:14:15.708Z,94016.69
2024-03-11T07:16:44.601Z,94028.66
2024-03-11T07:19:12.062Z,94023.69
2024-03-11T07:21:40.451Z,94027.25
2024-03-11T07:24:07.782Z,94020.81
2024-03-11T07:26:34.576Z,94041.72
2024-03-11T07:29:01.205Z,94025.09
2024-03-11T07:31:27.874Z,94020.00
2024-03-11T07:33:55.667Z,94019.16
2024-03-11T07:36:23.273Z,94017.28
2024-03-11T07:38:50.364Z,94009.97
2024-03-11T07:41:17.356Z,94002.97
2024-03-11T07:43:44.569Z,94005.00
2024-03-11T07:46:12.831Z,94017.56
2024-03-11T07:48:40.756Z,94013.81
2024-03-11T07:51:09.293Z,94019.06
2024-03-11T07:53:36.591Z,94024.03
2024-03-11T07:56:05.770Z,94029.75
2024-03-11T07:58:36.137Z,94035.03
2024-03-11T08:01:03.717Z,94023.38
2024-03-11T08:03:31.089Z,94024.91
2024-03-11T08:06:00.054Z,94024.34
2024-03-11T08:08:27.576Z,94035.19
2024-03-11T08:10:55.718Z,94040.41
2024-03-11T08:13:22.888Z,94046.38
2024-03-11T08:15:50.524Z,94041.72
2024-03-11T08:18:17.922Z,94038.19
2024-03-11T08:20:45.118Z,94043.38
2024-03-11T08:23:11.969Z,94047.31
2024-03-11T08:25:39.051Z,94044.91
2024-03-11T08:28:06.236Z,94047.50
2024-03-11T08:30:32.980Z,94042.00
2024-03-11T08:33:01.287Z,94039.16
2024-03-11T08:35:28.471Z,94048.09
2024-03-11T08:37:55.168Z,94046.09
2024-03-11T08:40:24.044Z,94041.84
2024-03-11T08:42:51.934Z,94039.13
2024-03-11T08:45:25.296Z,94048.69
2024-03-11T08:47:53.216Z,94048.84
2024-03-11T08:50:23.582Z,94045.50
2024-03-11T08:52:51.498Z,94041.94
2024-03-11T08:55:18.979Z,94054.13
2024-03-11T08:57:47.034Z,94047.66
2024-03-11T09:00:16.929Z,94043.31
2024-03-11T09:02:47.597Z,94044.09
2024-03-11T09:05:19.060Z,94032.97
2024-03-11T09:07:47.667Z,94032.91
2024-03-11T09:10:17.837Z,94031.91
2024-03-11T09:12:48.454Z,94022.66
2024-03-11T09:15:20.123Z,94034.91
2024-03-11T09:17:52.818Z,94037.69
2024-03-11T09:20:22.452Z,94036.56
2024-03-11T09:22:51.209Z,94039.91
2024-03-11T09:25:26.591Z,94035.06
2024-03-11T09:27:55.019Z,94024.88
2024-03-11T09:30:21.920Z,94026.94
2024-03-11T09:32:51.115Z,94016.44
2024-03-11T09:35:18.966Z,94017.94
2024-03-11T09:37:46.337Z,94016.81
2024-03-11T09:40:18.305Z,94001.84
2024-03-11T09:42:49.452Z,93988.91
2024-03-11T09:45:20.438Z,93989.41
2024-03-11T09:47:58.234Z,93985.47
2024-03-11T09:50:38.938Z,93978.63
2024-03-11T09:53:20.583Z,93982.50
2024-03-11T09:55:47.802Z,93988.88
2024-03-11T09:58:17.737Z,93965.53
2024-03-11T10:00:53.117Z,93974.41
2024-03-11T10:03:23.449Z,93965.94
2024-03-11T10:06:04.895Z,93959.41
2024-03-11T10:08:37.927Z,93950.63
2024-03-11T10:11:26.353Z,93954.47
2024-03-11T10:13:54.259Z,93950.13
2024-03-11T10:16:28.953Z,93960.78
2024-03-11T10:19:23.359Z,93955.25
2024-03-11T10:22:02.817Z,93934.69
2024-03-11T10:24:31.853Z,93932.22
2024-03-11T10:26:59.334Z,93933.91
2024-03-11T10:29:35.061Z,93934.09
2024-03-11T10:32:01.861Z,93935.88
2024-03-11T10:34:30.414Z,93933.13
2024-03-11T10:37:01.682Z,93925.13
2024-03-11T10:39:38.952Z,93918.81
2024-03-11T10:42:10.527Z,93910.75
2024-03-11T10:44:41.590Z,93916.44
2024-03-11T10:47:23.394Z,93916.00
2024-03-11T10:49:52.636Z,93904.81
2024-03-11T10:52:27.009Z,93886.53
2024-03-11T10:55:11.463Z,93896.44
2024-03-11T10:57:46.827Z,93892.94
2024-03-11T11:00:21.756Z,93866.22
2024-03-11T11:02:56.876Z,93879.28
2024-03-11T11:05:34.821Z,93879.19
2024-03-11T11:08:06.157Z,93859.28
2024-03-11T11:10:37.845Z,93860.38
2024-03-11T11:13:07.003Z,93863.88
2024-03-11T11:15:38.154Z,93855.59
2024-03-11T11:18:08.928Z,93846.91
2024-03-11T11:20:44.982Z,93843.50
2024-03-11T11:23:12.357Z,93849.34
2024-03-11T11:25:43.730Z,93823.47
2024-03-11T11:28:14.924Z,93819.59
2024-03-11T11:30:43.636Z,93819.22
2024-03-11T11:33:14.229Z,93820.00
2024-03-11T11:35:45.306Z,93815.38
2024-03-11T11:38:28.849Z,93813.41
2024-03-11T11:40:55.654Z,93808.06
2024-03-11T11:43:22.699Z,93797.31
2024-03-11T11:45:55.087Z,93793.41
2024-03-11T11:48:27.226Z,93782.28
2024-03-11T11:51:02.533Z,93786.13
2024-03-11T11:53:32.126Z,93782.63
2024-03-11T11:55:59.733Z,93796.44
2024-03-11T11:58:27.318Z,93780.72
2024-03-11T12:01:05.924Z,93781.84
2024-03-11T12:03:39.106Z,93772.28
2024-03-11T12:06:21.161Z,93766.06
2024-03-11T12:08:49.381Z,93758.84
2024-03-11T12:11:19.370Z,93741.50
2024-03-11T12:13:47.930Z,93739.09
2024-03-11T12:16:21.911Z,93745.00
2024-03-11T12:19:03.021Z,93759.53
2024-03-11T12:21:30.293Z,93753.38
2024-03-11T12:23:57.700Z,93741.13
2024-03-11T12:26:32.004Z,93741.91
2024-03-11T12:29:08.105Z,93746.06
2024-03-11T12:31:38.828Z,93751.50
2024-03-11T12:34:10.313Z,93750.38
2024-03-11T12:36:42.712Z,93747.22
2024-03-11T12:39:28.956Z,93740.63
2024-03-11T12:41:58.581Z,93735.69
2024-03-11T12:44:26.598Z,93732.63
2024-03-11T12:46:55.048Z,93730.69
2024-03-11T12:49:23.640Z,93733.72
2024-03-11T12:52:11.293Z,93734.06
2024-03-11T12:54:40.789Z,93733.19
2024-03-11T12:57:18.546Z,93719.16
2024-03-11T12:59:59.213Z,93706.22
2024-03-11T13:02:25.855Z,93704.81
2024-03-11T13:04:54.715Z,93705.97
2024-03-11T13:07:24.811Z,93700.09
2024-03-11T13:09:55.790Z,93705.06
2024-03-11T13:12:22.711Z,93703.19
2024-03-11T13:14:52.892Z,93699.41
2024-03-11T13:17:20.814Z,93685.88
2024-03-11T13:19:48.813Z,93688.38
2024-03-11T13:22:19.050Z,93666.78
2024-03-11T13:24:47.512Z,93663.06
2024-03-11T13:27:15.091Z,93662.53
2024-03-11T13:29:42.736Z,93665.63
2024-03-11T13:32:09.773Z,93664.25
2024-03-11T13:34:36.841Z,93666.38
2024-03-11T13:37:05.374Z,93670.28
2024-03-11T13:39:38.308Z,93667.72
2024-03-11T13:42:15.040Z,93681.69
2024-03-11T13:44:42.743Z,93675.06
2024-03-11T13:47:10.522Z,93674.00
2024-03-11T13:49:41.289Z,93673.97
2024-03-11T13:52:10.164Z,93660.97
2024-03-11T13:54:39.204Z,93650.78
2024-03-11T13:57:09.479Z,93643.59
2024-03-11T13:59:36.301Z,93630.84
2024-03-11T14:02:03.929Z,93630.41
2024-03-11T14:04:30.745Z,93620.69
2024-03-11T14:06:57.483Z,93615.88
2024-03-11T14:09:26.731Z,93610.72
2024-03-11T14:11:54.024Z,93586.97
2024-03-11T14:14:20.871Z,93610.59
2024-03-11T14:16:48.158Z,93593.94
2024-03-11T14:19:17.603Z,93616.63
2024-03-11T14:21:45.755Z,93606.16
2024-03-11T14:24:15.061Z,93607.88
2024-03-11T14:26:42.927Z,93611.03
2024-03-11T14:29:16.466Z,93617.50
2024-03-11T14:31:47.079Z,93604.06
2024-03-11T14:34:15.086Z,93594.88
2024-03-11T14:36:45.152Z,93584.13
2024-03-11T14:39:18.903Z,93593.81
2024-03-11T14:41:47.899Z,93581.59
2024-03-11T14:44:15.455Z,93568.75
2024-03-11T14:46:48.951Z,93574.53
2024-03-11T14:49:23.907Z,93581.41
2024-03-11T14:51:54.337Z,93569.25
2024-03-11T14:54:28.522Z,93550.84
2024-03-11T14:56:56.827Z,93554.66
2024-03-11T14:59:24.687Z,93556.44
2024-03-11T15:01:55.395Z,93558.50
2024-03-11T15:04:23.119Z,93561.22
2024-03-11T15:06:49.851Z,93566.50
2024-03-11T15:09:19.815Z,93584.56
2024-03-11T15:11:49.929Z,93577.25
2024-03-11T15:14:17.038Z,93578.09
2024-03-11T15:16:46.995Z,93583.06
2024-03-11T15:19:13.820Z,93586.16
2024-03-11T15:21:40.884Z,93590.78
2024-03-11T15:24:10.004Z,93574.66
2024-03-11T15:26:39.492Z,93581.13
2024-03-11T15:29:10.965Z,93569.13
2024-03-11T15:31:37.858Z,93568.09
2024-03-11T15:34:04.952Z,93562.38
2024-03-11T15:36:36.869Z,93558.47
2024-03-11T15:39:04.978Z,93557.34
2024-03-11T15:41:31.771Z,93557.75
2024-03-11T15:43:58.463Z,93561.00
2024-03-11T15:46:29.797Z,93570.22
2024-03-11T15:48:59.566Z,93552.06
2024-03-11T15:51:27.049Z,93551.06
2024-03-11T15:53:54.907Z,93534.06
2024-03-11T15:56:22.504Z,93541.53
2024-03-11T15:58:51.221Z,93535.09
2024-03-11T16:01:23.696Z,93521.25
2024-03-11T16:03:52.699Z,93526.25
2024-03-11T16:06:20.375Z,93539.31
2024-03-11T16:08:47.433Z,93528.97
2024-03-11T16:11:14.963Z,93517.41
2024-03-11T16:13:41.807Z,93521.97
2024-03-11T16:16:09.875Z,93519.28
2024-03-11T16:18:37.156Z,93510.44
2024-03-11T16:21:04.349Z,93518.81
2024-03-11T16:23:32.858Z,93523.16
2024-03-11T16:26:02.355Z,93513.94
2024-03-11T16:28:29.712Z,93516.47
2024-03-11T16:30:56.317Z,93511.91
2024-03-11T16:33:25.818Z,93501.47
2024-03-11T16:35:52.501Z,93508.00
2024-03-11T16:38:19.653Z,93510.19
2024-03-11T16:40:47.038Z,93522.31
2024-03-11T16:43:17.340Z,93513.91
2024-03-11T16:45:49.351Z,93523.09
2024-03-11T16:48:17.994Z,93527.69
2024-03-11T16:50:49.509Z,93538.03
2024-03-11T16:53:22.290Z,93534.66
2024-03-11T16:55:52.047Z,93539.81
2024-03-11T16:58:18.900Z,93535.16
2024-03-11T17:00:50.065Z,93548.38
2024-03-11T17:03:17.847Z,93538.44
2024-03-11T17:05:45.608Z,93513.03
2024-03-11T17:08:16.143Z,93527.34
2024-03-11T17:10:46.409Z,93508.91
2024-03-11T17:13:16.108Z,93516.50
2024-03-11T17:15:43.747Z,93523.41
2024-03-11T17:18:13.351Z,93523.09
2024-03-11T17:20:46.096Z,93526.53
2024-03-11T17:23:17.508Z,93527.34
2024-03-11T17:25:46.235Z,93518.94
2024-03-11T17:28:17.380Z,93521.22
2024-03-11T17:30:47.335Z,93515.81
2024-03-11T17:33:19.384Z,93499.28
2024-03-11T17:35:50.612Z,93508.53
2024-03-11T17:38:20.254Z,93497.47
2024-03-11T17:40:50.868Z,93518.19
2024-03-11T17:43:20.152Z,93509.75
2024-03-11T17:45:48.539Z,93523.50
2024-03-11T17:48:17.584Z,93519.69
2024-03-11T17:50:45.050Z,93528.16
2024-03-11T17:53:13.438Z,93540.44
2024-03-11T17:55:41.944Z,93530.03
2024-03-11T17:58:12.101Z,93544.97
2024-03-11T18:00:41.260Z,93547.28
2024-03-11T18:03:10.858Z,93556.94
2024-03-11T18:05:38.245Z,93534.28
2024-03-11T18:08:08.110Z,93551.19
2024-03-11T18:10:37.913Z,93531.97
2024-03-11T18:13:12.480Z,93543.25
2024-03-11T18:15:42.960Z,93531.47
2024-03-11T18:18:14.585Z,93528.00
2024-03-11T18:20:42.427Z,93545.41
2024-03-11T18:23:14.839Z,93548.16
2024-03-11T18:25:43.305Z,93545.97
2024-03-11T18:28:10.196Z,93544.09
2024-03-11T18:30:37.382Z,93532.50
2024-03-11T18:33:06.695Z,93529.28
2024-03-11T18:35:36.928Z,93543.25
2024-03-11T18:38:07.850Z,93518.75
2024-03-11T18:40:35.745Z,93522.31
2024-03-11T18:43:05.806Z,93528.38
2024-03-11T18:45:33.945Z,93502.75
2024-03-11T18:48:02.112Z,93516.59
2024-03-11T18:50:29.572Z,93505.84
2024-03-11T18:53:00.674Z,93503.16
2024-03-11T18:55:31.250Z,93516.19
2024-03-11T18:58:00.108Z,93519.72
2024-03-11T19:00:28.270Z,93523.56
2024-03-11T19:03:01.192Z,93526.59
2024-03-11T19:05:29.073Z,93521.97
2024-03-11T19:07:56.881Z,93530.06
2024-03-11T19:10:26.956Z,93530.81
2024-03-11T19:12:54.935Z,93536.13
2024-03-11T19:15:25.567Z,93544.22
2024-03-11T19:17:52.851Z,93515.09
2024-03-11T19:20:24.405Z,93523.47
2024-03-11T19:22:58.971Z,93534.53
2024-03-11T19:25:29.464Z,93541.13
2024-03-11T19:27:59.064Z,93558.03
2024-03-11T19:30:29.524Z,93540.81
2024-03-11T19:32:58.142Z,93539.66
2024-03-11T19:35:25.044Z,93539.28
2024-03-11T19:38:15.243Z,93513.91
2024-03-11T19:40:45.119Z,93517.13
2024-03-11T19:43:30.555Z,93499.47
2024-03-11T19:46:27.678Z,93507.41
2024-03-11T19:49:31.592Z,93520.97
2024-03-11T19:52:02.195Z,93539.34
2024-03-11T19:55:03.069Z,93545.63
2024-03-11T19:57:54.475Z,93521.88
2024-03-11T20:01:13.063Z,93535.16
2024-03-11T20:03:54.466Z,93543.16
2024-03-11T20:06:45.804Z,93553.16
2024-03-11T20:09:49.936Z,93549.41
2024-03-11T20:12:41.357Z,93544.94
2024-03-11T20:15:29.458Z,93542.91
2024-03-11T20:18:22.509Z,93535.97
2024-03-11T20:21:27.148Z,93553.59
2024-03-11T20:24:07.701Z,93554.38
2024-03-11T20:26:43.501Z,93557.13
2024-03-11T20:29:26.076Z,93556.34
2024-03-11T20:32:00.163Z,93565.25
2024-03-11T20:34:26.724Z,93565.59
2024-03-11T20:36:53.476Z,93581.94
2024-03-11T20:39:20.207Z,93558.59
2024-03-11T20:41:47.196Z,93539.38
2024-03-11T20:44:13.820Z,93553.59
2024-03-11T20:46:40.549Z,93560.22
2024-03-11T20:49:09.319Z,93553.53
2024-03-11T20:51:40.714Z,93541.25
2024-03-11T20:54:07.832Z,93526.75
2024-03-11T20:56:34.400Z,93517.03
2024-03-11T20:59:01.084Z,93499.38
2024-03-11T21:01:29.670Z,93503.69
2024-03-11T21:03:57.620Z,93504.16
2024-03-11T21:06:24.859Z,93533.75
2024-03-11T21:08:53.749Z,93516.03
2024-03-11T21:11:21.583Z,93520.72
2024-03-11T21:13:48.311Z,93531.47
2024-03-11T21:16:19.490Z,93539.47
2024-03-11T21:18:48.349Z,93542.50
2024-03-11T21:21:23.930Z,93548.69
2024-03-11T21:24:19.633Z,93548.72
2024-03-11T21:27:11.929Z,93523.38
2024-03-11T21:29:38.760Z,93517.56
2024-03-11T21:32:05.658Z,93503.13
2024-03-11T21:34:32.275Z,93529.03
2024-03-11T21:36:58.967Z,93541.38
2024-03-11T21:39:28.144Z,93541.44
2024-03-11T21:41:54.831Z,93531.88
2024-03-11T21:44:21.886Z,93526.66
2024-03-11T21:46:49.106Z,93510.13
2024-03-11T21:49:15.732Z,93520.13
2024-03-11T21:51:42.465Z,93521.88
2024-03-11T21:54:10.260Z,93518.50
2024-03-11T21:56:36.896Z,93516.59
2024-03-11T21:59:04.246Z,93533.75
2024-03-11T22:01:30.872Z,93545.72
2024-03-11T22:03:57.571Z,93517.38
2024-03-11T22:06:24.373Z,93502.75
2024-03-11T22:08:53.763Z,93512.00
2024-03-11T22:11:20.457Z,93525.84
2024-03-11T22:13:47.065Z,93510.81
2024-03-11T22:16:13.932Z,93500.03
2024-03-11T22:18:40.666Z,93521.88
2024-03-11T22:21:07.456Z,93527.28
2024-03-11T22:23:34.585Z,93525.78
2024-03-11T22:26:01.322Z,93517.38
2024-03-11T22:28:27.935Z,93533.06
2024-03-11T22:30:54.518Z,93530.00
2024-03-11T22:33:21.280Z,93533.53
2024-03-11T22:35:48.008Z,93531.25
2024-03-11T22:38:14.595Z,93535.75
2024-03-11T22:40:41.313Z,93546.78
2024-03-11T22:43:07.924Z,93553.88
2024-03-11T22:45:34.653Z,93553.88
2024-03-11T22:48:02.495Z,93549.03
2024-03-11T22:50:29.222Z,93547.59
2024-03-11T22:52:55.881Z,93553.97
2024-03-11T22:55:22.479Z,93557.94
2024-03-11T22:57:49.102Z,93567.53
2024-03-11T23:00:34.992Z,93569.41
2024-03-11T23:03:01.768Z,93574.13
2024-03-11T23:05:28.416Z,93565.88
2024-03-11T23:07:54.986Z,93554.28
2024-03-11T23:10:27.807Z,93547.34
2024-03-11T23:12:55.828Z,93558.16
2024-03-11T23:15:23.845Z,93542.97
2024-03-11T23:17:51.763Z,93537.22
2024-03-11T23:20:19.347Z,93548.03
2024-03-11T23:22:46.776Z,93548.47
2024-03-11T23:25:13.775Z,93538.41
2024-03-11T23:27:40.442Z,93536.56
2024-03-11T23:30:14.445Z,93548.13
2024-03-11T23:32:44.004Z,93570.94
2024-03-11T23:35:10.658Z,93577.91
2024-03-11T23:37:38.314Z,93580.00
2024-03-11T23:40:20.523Z,93571.75
2024-03-11T23:42:51.458Z,93574.19
2024-03-11T23:45:18.594Z,93563.22
2024-03-11T23:47:46.291Z,93566.94
2024-03-11T23:50:13.849Z,93567.69
2024-03-11T23:52:43.518Z,93574.34
2024-03-11T23:55:14.772Z,93581.59
2024-03-11T23:57:41.588Z,93571.28
